Rzeszow-Jasionka Airport Rzeszow PL
ICAO: EPRZ
IATA: RZE
Category: Medium
Scheduled Services: Yes

Elevation: 675 ft
TransAlt. 6500 ft.

Airport Communications:
RZESZOW TWR:126.8

EPRZ Zoom In..

Runways:

(A) RW 09 length 10499 ft width 148 ft
---- / hdg 86

(B) RW 27 length 10499 ft width 148 ft
ILS 110.30 / hdg 266

Location; EPRZ
Day. 05 / Time. 16.00 Zulu
* QNH: 1013
* Temperature: 28° c. 82.4°f.
* Wind from: 240° Speed 06 kn.
Dewpoint: 12° c.
Visibility: 10 km or more,
No clouds below 1,500 m.
No cumulonimbus, and no significant weather
fenomena in the aerodrome or its vicinity.

EPRZ 051600Z 24006KT 210V280 CAVOK 28/12 Q1013

Going to: --> -->


Wind From 240°
Speed 06 kn.

 
 
jpsmedia worldairports.se 2020   terms of use